createdAt,value
2023-01-09T00:13:26.538Z,87079.00
2023-01-09T00:14:26.519Z,87079.00
2023-01-09T00:15:26.496Z,87077.00
2023-01-09T00:16:26.585Z,87071.00
2023-01-09T00:17:26.427Z,87073.00
2023-01-09T00:18:26.397Z,87073.00
2023-01-09T00:19:26.359Z,87075.00
2023-01-09T00:20:26.353Z,87073.00
2023-01-09T00:21:26.311Z,87069.00
2023-01-09T00:22:26.296Z,87063.00
2023-01-09T00:23:26.267Z,87061.00
2023-01-09T00:24:26.247Z,87055.00
2023-01-09T00:25:26.221Z,87057.00
2023-01-09T00:26:26.209Z,87061.00
2023-01-09T00:27:26.174Z,87065.00
2023-01-09T00:28:26.154Z,87061.00
2023-01-09T00:29:26.126Z,87059.00
2023-01-09T00:30:26.147Z,87059.00
2023-01-09T00:31:26.085Z,87061.00
2023-01-09T00:32:26.054Z,87061.00
2023-01-09T00:33:26.031Z,87065.00
2023-01-09T00:34:26.013Z,87059.00
2023-01-09T00:35:25.993Z,87057.00
2023-01-09T00:36:25.974Z,87061.00
2023-01-09T00:37:25.947Z,87059.00
2023-01-09T00:38:25.923Z,87059.00
2023-01-09T00:39:25.886Z,87053.00
2023-01-09T00:40:25.872Z,87057.00
2023-01-09T00:41:25.832Z,87053.00
2023-01-09T00:42:25.792Z,87045.00
2023-01-09T00:43:25.771Z,87047.00
2023-01-09T00:44:25.751Z,87047.00
2023-01-09T00:45:25.730Z,87045.00
2023-01-09T00:46:25.735Z,87041.00
2023-01-09T00:47:25.673Z,87035.00
2023-01-09T00:48:25.647Z,87033.00
2023-01-09T00:49:25.616Z,87031.00
2023-01-09T00:50:25.595Z,87035.00
2023-01-09T00:51:25.581Z,87031.00
2023-01-09T00:52:25.546Z,87031.00
2023-01-09T00:53:25.522Z,87031.00
2023-01-09T00:54:25.503Z,87033.00
2023-01-09T00:55:25.471Z,87029.00
2023-01-09T00:56:25.451Z,87031.00
2023-01-09T00:57:25.417Z,87031.00
2023-01-09T00:58:25.397Z,87041.00
2023-01-09T00:59:25.368Z,87025.00
2023-01-09T01:00:25.346Z,87027.00
2023-01-09T01:01:25.404Z,87027.00
2023-01-09T01:02:25.440Z,87027.00
2023-01-09T01:03:25.269Z,87020.00
2023-01-09T01:04:25.229Z,87024.00
2023-01-09T01:05:25.212Z,87020.00
2023-01-09T01:06:25.176Z,87010.00
2023-01-09T01:07:25.154Z,87002.00
2023-01-09T01:08:25.125Z,87010.00
2023-01-09T01:09:25.092Z,87006.00
2023-01-09T01:10:25.073Z,87000.00
2023-01-09T01:11:25.042Z,87000.00
2023-01-09T01:12:25.037Z,87000.00
2023-01-09T01:13:25.033Z,86998.00
2023-01-09T01:14:24.982Z,87000.00
2023-01-09T01:15:24.949Z,87002.00
2023-01-09T01:16:24.981Z,87000.00
2023-01-09T01:17:24.899Z,86994.00
2023-01-09T01:18:24.875Z,86992.00
2023-01-09T01:19:24.853Z,86990.00
2023-01-09T01:20:24.833Z,86994.00
2023-01-09T01:21:24.804Z,86994.00
2023-01-09T01:22:24.788Z,86990.00
2023-01-09T01:23:24.756Z,86990.00
2023-01-09T01:24:24.739Z,86988.00
2023-01-09T01:25:24.711Z,86982.00
2023-01-09T01:26:24.687Z,86982.00
2023-01-09T01:27:24.677Z,86974.00
2023-01-09T01:28:24.649Z,86980.00
2023-01-09T01:29:24.621Z,86982.00
2023-01-09T01:30:24.607Z,86976.00
2023-01-09T01:31:24.574Z,86970.00
2023-01-09T01:32:24.551Z,86972.00
2023-01-09T01:33:24.527Z,86972.00
2023-01-09T01:34:24.497Z,86974.00
2023-01-09T01:35:24.472Z,86972.00
2023-01-09T01:36:24.446Z,86980.00
2023-01-09T01:37:24.419Z,86980.00
2023-01-09T01:38:24.383Z,86976.00
2023-01-09T01:39:24.359Z,86976.00
2023-01-09T01:40:24.327Z,86978.00
2023-01-09T01:41:24.302Z,86982.00
2023-01-09T01:42:24.275Z,86980.00
2023-01-09T01:43:24.229Z,86972.00
2023-01-09T01:44:24.185Z,86972.00
2023-01-09T01:45:24.152Z,86967.00
2023-01-09T01:46:24.123Z,86969.00
2023-01-09T01:47:24.089Z,86965.00
2023-01-09T01:48:24.056Z,86963.00
2023-01-09T01:49:24.028Z,86961.00
2023-01-09T01:50:24.002Z,86957.00
2023-01-09T01:51:23.980Z,86955.00
2023-01-09T01:52:23.950Z,86955.00
2023-01-09T01:53:23.923Z,86957.00
2023-01-09T01:54:23.900Z,86959.00
2023-01-09T01:55:23.883Z,86963.00
2023-01-09T01:56:23.865Z,86967.00
2023-01-09T01:57:23.850Z,86965.00
2023-01-09T01:58:23.814Z,86961.00
2023-01-09T01:59:23.790Z,86972.00
2023-01-09T02:00:23.774Z,86967.00
2023-01-09T02:01:23.865Z,86976.00
2023-01-09T02:02:23.868Z,86965.00
2023-01-09T02:03:23.694Z,86967.00
2023-01-09T02:04:23.662Z,86959.00
2023-01-09T02:05:23.641Z,86957.00
2023-01-09T02:06:23.615Z,86955.00
2023-01-09T02:07:23.583Z,86951.00
2023-01-09T02:08:23.567Z,86945.00
2023-01-09T02:09:23.529Z,86949.00
2023-01-09T02:10:23.513Z,86945.00
2023-01-09T02:11:23.470Z,86945.00
2023-01-09T02:12:23.442Z,86945.00
2023-01-09T02:13:23.412Z,86947.00
2023-01-09T02:14:23.393Z,86943.00
2023-01-09T02:15:23.365Z,86941.00
2023-01-09T02:16:23.370Z,86945.00
2023-01-09T02:17:23.312Z,86943.00
2023-01-09T02:18:23.281Z,86939.00
2023-01-09T02:19:23.265Z,86937.00
2023-01-09T02:20:23.222Z,86945.00
2023-01-09T02:21:23.203Z,86943.00
2023-01-09T02:22:23.176Z,86941.00
2023-01-09T02:23:23.154Z,86933.00
2023-01-09T02:24:23.128Z,86937.00
2023-01-09T02:25:23.121Z,86933.00
2023-01-09T02:26:23.088Z,86924.00
2023-01-09T02:27:23.077Z,86931.00
2023-01-09T02:28:23.059Z,86935.00
2023-01-09T02:29:23.034Z,86931.00
2023-01-09T02:30:23.010Z,86939.00
2023-01-09T02:31:23.019Z,86933.00
2023-01-09T02:32:22.965Z,86924.00
2023-01-09T02:33:22.963Z,86924.00
2023-01-09T02:34:22.896Z,86920.00
2023-01-09T02:35:22.870Z,86922.00
2023-01-09T02:36:22.853Z,86924.00
2023-01-09T02:37:22.818Z,86922.00
2023-01-09T02:38:22.778Z,86924.00
2023-01-09T02:39:22.764Z,86917.00
2023-01-09T02:40:22.722Z,86918.00
2023-01-09T02:41:22.700Z,86922.00
2023-01-09T02:42:22.663Z,86917.00
2023-01-09T02:43:22.635Z,86913.00
2023-01-09T02:44:22.621Z,86915.00
2023-01-09T02:45:22.572Z,86911.00
2023-01-09T02:46:22.549Z,86915.00
2023-01-09T02:47:22.544Z,86905.00
2023-01-09T02:48:22.512Z,86909.00
2023-01-09T02:49:22.482Z,86905.00
2023-01-09T02:50:22.465Z,86903.00
2023-01-09T02:51:22.435Z,86903.00
2023-01-09T02:52:22.412Z,86905.00
2023-01-09T02:53:22.389Z,86897.00
2023-01-09T02:54:22.375Z,86899.00
2023-01-09T02:55:22.338Z,86899.00
2023-01-09T02:56:22.322Z,86901.00
2023-01-09T02:57:22.304Z,86905.00
2023-01-09T02:58:22.280Z,86907.00
2023-01-09T02:59:22.256Z,86909.00
2023-01-09T03:00:22.237Z,86899.00
2023-01-09T03:01:22.288Z,86901.00
2023-01-09T03:02:22.193Z,86899.00
2023-01-09T03:03:22.177Z,86899.00
2023-01-09T03:04:22.151Z,86895.00
2023-01-09T03:05:22.125Z,86893.00
2023-01-09T03:06:22.119Z,86901.00
2023-01-09T03:07:22.107Z,86897.00
2023-01-09T03:08:22.080Z,86901.00
2023-01-09T03:09:22.073Z,86895.00
2023-01-09T03:10:22.050Z,86895.00
2023-01-09T03:11:22.061Z,86891.00
2023-01-09T03:12:22.001Z,86893.00
2023-01-09T03:13:21.977Z,86887.00
2023-01-09T03:14:21.953Z,86883.00
2023-01-09T03:15:21.933Z,86889.00
2023-01-09T03:16:21.921Z,86889.00
2023-01-09T03:17:21.867Z,86885.00
2023-01-09T03:18:21.832Z,86887.00
2023-01-09T03:19:21.804Z,86885.00
2023-01-09T03:20:21.776Z,86887.00
2023-01-09T03:21:21.757Z,86881.00
2023-01-09T03:22:21.731Z,86879.00
2023-01-09T03:23:21.730Z,86885.00
2023-01-09T03:24:21.712Z,86883.00
2023-01-09T03:25:21.680Z,86887.00
2023-01-09T03:26:21.672Z,86887.00
2023-01-09T03:27:21.656Z,86885.00
2023-01-09T03:28:21.636Z,86885.00
2023-01-09T03:29:21.628Z,86889.00
2023-01-09T03:30:21.605Z,86885.00
2023-01-09T03:31:21.618Z,86887.00
2023-01-09T03:32:21.546Z,86891.00
2023-01-09T03:33:21.546Z,86889.00
2023-01-09T03:34:21.525Z,86893.00
2023-01-09T03:35:21.496Z,86893.00
2023-01-09T03:36:21.473Z,86889.00
2023-01-09T03:37:21.448Z,86891.00
2023-01-09T03:38:21.431Z,86891.00
2023-01-09T03:39:21.413Z,86893.00
2023-01-09T03:40:21.404Z,86893.00
2023-01-09T03:41:21.385Z,86891.00
2023-01-09T03:42:21.364Z,86889.00
2023-01-09T03:43:21.348Z,86895.00
2023-01-09T03:44:21.324Z,86893.00
2023-01-09T03:45:21.307Z,86895.00
2023-01-09T03:46:21.297Z,86895.00
2023-01-09T03:47:21.269Z,86903.00
2023-01-09T03:48:21.253Z,86903.00
2023-01-09T03:49:21.237Z,86901.00
2023-01-09T03:50:21.208Z,86893.00
2023-01-09T03:51:21.201Z,86901.00
2023-01-09T03:52:21.182Z,86901.00
2023-01-09T03:53:21.169Z,86893.00
2023-01-09T03:54:21.138Z,86895.00
2023-01-09T03:55:21.138Z,86897.00
2023-01-09T03:56:21.100Z,86897.00
2023-01-09T03:57:21.088Z,86897.00
2023-01-09T03:58:21.073Z,86899.00
2023-01-09T03:59:21.058Z,86899.00
2023-01-09T04:00:21.037Z,86895.00
2023-01-09T04:01:21.083Z,86899.00
2023-01-09T04:02:20.982Z,86897.00
2023-01-09T04:03:20.995Z,86895.00
2023-01-09T04:04:20.937Z,86901.00
2023-01-09T04:05:20.910Z,86901.00
2023-01-09T04:06:20.874Z,86899.00
2023-01-09T04:07:20.849Z,86899.00
2023-01-09T04:08:20.837Z,86891.00
2023-01-09T04:09:20.814Z,86889.00
2023-01-09T04:10:20.779Z,86889.00
2023-01-09T04:11:20.751Z,86881.00
2023-01-09T04:12:20.725Z,86883.00
2023-01-09T04:13:20.723Z,86879.00
2023-01-09T04:14:20.673Z,86881.00
2023-01-09T04:15:20.651Z,86879.00
2023-01-09T04:16:20.652Z,86881.00
2023-01-09T04:17:20.591Z,86881.00
2023-01-09T04:18:20.560Z,86875.00
2023-01-09T04:19:20.534Z,86875.00
2023-01-09T04:20:20.523Z,86881.00
2023-01-09T04:21:20.487Z,86877.00
2023-01-09T04:22:20.459Z,86879.00
2023-01-09T04:23:20.441Z,86881.00
2023-01-09T04:24:20.418Z,86883.00
2023-01-09T04:25:20.417Z,86885.00
2023-01-09T04:26:20.377Z,86885.00
2023-01-09T04:27:20.352Z,86885.00
2023-01-09T04:28:20.334Z,86885.00
2023-01-09T04:29:20.310Z,86885.00
2023-01-09T04:30:20.284Z,86883.00
2023-01-09T04:31:20.291Z,86877.00
2023-01-09T04:32:20.243Z,86875.00
2023-01-09T04:33:20.220Z,86875.00
2023-01-09T04:34:20.199Z,86871.00
2023-01-09T04:35:20.186Z,86869.00
2023-01-09T04:36:20.155Z,86879.00
2023-01-09T04:37:20.129Z,86875.00
2023-01-09T04:38:20.147Z,86875.00
2023-01-09T04:39:20.077Z,86873.00
2023-01-09T04:40:20.055Z,86879.00
2023-01-09T04:41:20.044Z,86879.00
2023-01-09T04:42:20.016Z,86873.00
2023-01-09T04:43:19.995Z,86875.00
2023-01-09T04:44:19.980Z,86875.00
2023-01-09T04:45:19.952Z,86875.00
2023-01-09T04:46:19.938Z,86875.00
2023-01-09T04:47:19.915Z,86875.00
2023-01-09T04:48:19.895Z,86873.00
2023-01-09T04:49:19.861Z,86873.00
2023-01-09T04:50:19.836Z,86881.00
2023-01-09T04:51:19.822Z,86885.00
2023-01-09T04:52:19.789Z,86891.00
2023-01-09T04:53:19.787Z,86895.00
2023-01-09T04:54:19.754Z,86899.00
2023-01-09T04:55:19.768Z,86899.00
2023-01-09T04:56:19.705Z,86905.00
2023-01-09T04:57:19.675Z,86909.00
2023-01-09T04:58:19.648Z,86911.00
2023-01-09T04:59:19.646Z,86911.00
2023-01-09T05:00:19.621Z,86911.00
2023-01-09T05:01:19.653Z,86911.00
2023-01-09T05:02:19.575Z,86909.00
2023-01-09T05:03:19.532Z,86907.00
2023-01-09T05:04:19.575Z,86907.00
2023-01-09T05:05:19.481Z,86905.00
2023-01-09T05:06:19.446Z,86907.00
2023-01-09T05:07:19.444Z,86905.00
2023-01-09T05:08:19.393Z,86903.00
2023-01-09T05:09:19.363Z,86903.00
2023-01-09T05:10:19.336Z,86901.00
2023-01-09T05:11:19.317Z,86899.00
2023-01-09T05:12:19.270Z,86897.00
2023-01-09T05:13:19.237Z,86897.00
2023-01-09T05:14:19.200Z,86901.00
2023-01-09T05:15:19.182Z,86897.00
2023-01-09T05:16:19.212Z,86899.00
2023-01-09T05:17:19.105Z,86899.00
2023-01-09T05:18:19.069Z,86895.00
2023-01-09T05:19:19.049Z,86899.00
2023-01-09T05:20:19.003Z,86897.00
2023-01-09T05:21:18.976Z,86893.00
2023-01-09T05:22:18.941Z,86899.00
2023-01-09T05:23:18.913Z,86895.00
2023-01-09T05:24:18.873Z,86895.00
2023-01-09T05:25:18.849Z,86889.00
2023-01-09T05:26:18.814Z,86887.00
2023-01-09T05:27:18.796Z,86881.00
2023-01-09T05:28:18.830Z,86887.00
2023-01-09T05:29:18.724Z,86891.00
2023-01-09T05:30:18.687Z,86887.00
2023-01-09T05:31:18.705Z,86891.00
2023-01-09T05:32:18.635Z,86889.00
2023-01-09T05:33:18.596Z,86889.00
2023-01-09T05:34:18.563Z,86899.00
2023-01-09T05:35:18.531Z,86899.00
2023-01-09T05:36:18.498Z,86899.00
2023-01-09T05:37:18.484Z,86899.00
2023-01-09T05:38:18.450Z,86901.00
2023-01-09T05:39:18.433Z,86905.00
2023-01-09T05:40:18.375Z,86909.00
2023-01-09T05:41:18.365Z,86911.00
2023-01-09T05:42:18.325Z,86913.00
2023-01-09T05:43:18.312Z,86911.00
2023-01-09T05:44:18.269Z,86907.00
2023-01-09T05:45:18.254Z,86905.00
2023-01-09T05:46:18.214Z,86911.00
2023-01-09T05:47:18.193Z,86907.00
2023-01-09T05:48:18.162Z,86905.00
2023-01-09T05:49:18.136Z,86905.00
2023-01-09T05:50:18.110Z,86903.00
2023-01-09T05:51:18.087Z,86903.00
2023-01-09T05:52:18.060Z,86909.00
2023-01-09T05:53:18.040Z,86907.00
2023-01-09T05:54:18.022Z,86903.00
2023-01-09T05:55:17.993Z,86907.00
2023-01-09T05:56:17.970Z,86905.00
2023-01-09T05:57:17.949Z,86909.00
2023-01-09T05:58:17.920Z,86909.00
2023-01-09T05:59:17.902Z,86905.00
2023-01-09T06:00:17.885Z,86905.00
2023-01-09T06:01:17.891Z,86905.00
2023-01-09T06:02:17.982Z,86907.00
2023-01-09T06:03:17.843Z,86909.00
2023-01-09T06:04:17.786Z,86911.00
2023-01-09T06:05:17.754Z,86907.00
2023-01-09T06:06:17.733Z,86905.00
2023-01-09T06:07:21.012Z,86907.00
2023-01-09T06:08:17.674Z,86907.00
2023-01-09T06:09:17.649Z,86909.00
2023-01-09T06:10:17.622Z,86907.00
2023-01-09T06:11:17.602Z,86911.00
2023-01-09T06:12:17.602Z,86911.00
2023-01-09T06:13:17.549Z,86915.00
2023-01-09T06:14:17.526Z,86915.00
2023-01-09T06:15:17.500Z,86915.00
2023-01-09T06:16:17.588Z,86918.00
2023-01-09T06:17:17.460Z,86915.00
2023-01-09T06:18:17.430Z,86917.00
2023-01-09T06:19:17.403Z,86920.00
2023-01-09T06:20:17.377Z,86924.00
2023-01-09T06:21:17.346Z,86931.00
2023-01-09T06:22:17.326Z,86935.00
2023-01-09T06:23:17.284Z,86939.00
2023-01-09T06:24:17.249Z,86947.00
2023-01-09T06:25:17.224Z,86947.00
2023-01-09T06:26:17.187Z,86953.00
2023-01-09T06:27:17.160Z,86957.00
2023-01-09T06:28:17.152Z,86961.00
2023-01-09T06:29:17.101Z,86965.00
2023-01-09T06:30:17.069Z,86970.00
2023-01-09T06:31:17.118Z,86978.00
2023-01-09T06:32:17.019Z,86980.00
2023-01-09T06:33:16.987Z,86978.00
2023-01-09T06:34:16.953Z,86986.00
2023-01-09T06:35:16.911Z,86990.00
2023-01-09T06:36:16.883Z,86990.00
2023-01-09T06:37:16.860Z,86990.00
2023-01-09T06:38:16.826Z,86992.00
2023-01-09T06:39:16.782Z,86998.00
2023-01-09T06:40:16.752Z,86996.00
2023-01-09T06:41:16.719Z,86996.00
2023-01-09T06:42:16.696Z,86998.00
2023-01-09T06:43:16.660Z,86998.00
2023-01-09T06:44:16.639Z,87000.00
2023-01-09T06:45:16.592Z,87002.00
2023-01-09T06:46:16.601Z,87002.00
2023-01-09T06:47:16.531Z,87000.00
2023-01-09T06:48:16.481Z,87006.00
2023-01-09T06:49:16.449Z,87006.00
2023-01-09T06:50:16.402Z,87004.00
2023-01-09T06:51:16.384Z,86996.00
2023-01-09T06:52:16.338Z,87002.00
2023-01-09T06:53:16.338Z,87002.00
2023-01-09T06:54:16.293Z,87000.00
2023-01-09T06:55:16.250Z,86998.00
2023-01-09T06:56:16.217Z,86998.00
2023-01-09T06:57:16.199Z,86998.00
2023-01-09T06:58:16.159Z,87002.00
2023-01-09T06:59:16.108Z,87004.00
2023-01-09T07:00:16.078Z,87002.00
2023-01-09T07:01:16.136Z,87012.00
2023-01-09T07:02:16.109Z,87016.00
2023-01-09T07:03:15.977Z,87020.00
2023-01-09T07:04:16.018Z,87020.00
2023-01-09T07:05:15.903Z,87018.00
2023-01-09T07:06:15.877Z,87020.00
2023-01-09T07:07:15.830Z,87020.00
2023-01-09T07:08:15.800Z,87025.00
2023-01-09T07:09:15.749Z,87025.00
2023-01-09T07:10:15.709Z,87033.00
2023-01-09T07:11:15.671Z,87031.00
2023-01-09T07:12:15.635Z,87029.00
2023-01-09T07:13:15.599Z,87037.00
2023-01-09T07:14:15.557Z,87039.00
2023-01-09T07:15:15.512Z,87043.00
2023-01-09T07:16:15.518Z,87043.00
2023-01-09T07:17:15.434Z,87039.00
2023-01-09T07:18:15.423Z,87039.00
2023-01-09T07:19:15.373Z,87045.00
2023-01-09T07:20:15.330Z,87049.00
2023-01-09T07:21:15.285Z,87045.00
2023-01-09T07:22:15.253Z,87051.00
2023-01-09T07:23:15.204Z,87055.00
2023-01-09T07:24:15.173Z,87055.00
2023-01-09T07:25:15.115Z,87061.00
2023-01-09T07:26:15.084Z,87063.00
2023-01-09T07:27:15.047Z,87065.00
2023-01-09T07:28:15.010Z,87067.00
2023-01-09T07:29:14.976Z,87065.00
2023-01-09T07:30:14.935Z,87071.00
2023-01-09T07:31:14.922Z,87073.00
2023-01-09T07:32:14.861Z,87077.00
2023-01-09T07:33:14.823Z,87077.00
2023-01-09T07:34:14.794Z,87080.00
2023-01-09T07:35:14.727Z,87082.00
2023-01-09T07:36:14.701Z,87084.00
2023-01-09T07:37:14.673Z,87084.00
2023-01-09T07:38:14.625Z,87088.00
2023-01-09T07:39:14.594Z,87090.00
2023-01-09T07:40:14.558Z,87092.00
2023-01-09T07:41:14.516Z,87092.00
2023-01-09T07:42:14.493Z,87098.00
2023-01-09T07:43:14.445Z,87098.00
2023-01-09T07:44:14.408Z,87096.00
2023-01-09T07:45:14.361Z,87098.00
2023-01-09T07:46:14.363Z,87100.00
2023-01-09T07:47:14.291Z,87098.00
2023-01-09T07:48:14.271Z,87100.00
2023-01-09T07:49:14.217Z,87098.00
2023-01-09T07:50:14.188Z,87100.00
2023-01-09T07:51:14.176Z,87098.00
2023-01-09T07:52:14.131Z,87098.00
2023-01-09T07:53:14.120Z,87098.00
2023-01-09T07:54:14.100Z,87098.00
2023-01-09T07:55:16.071Z,87094.00
2023-01-09T07:56:14.078Z,87100.00
2023-01-09T07:57:14.052Z,87098.00
2023-01-09T07:58:14.035Z,87102.00
2023-01-09T07:59:14.028Z,87102.00
2023-01-09T08:00:14.014Z,87100.00
2023-01-09T08:01:14.107Z,87100.00
2023-01-09T08:02:14.052Z,87102.00
2023-01-09T08:03:13.974Z,87102.00
2023-01-09T08:04:13.992Z,87106.00
2023-01-09T08:05:13.952Z,87110.00
2023-01-09T08:06:13.959Z,87112.00
2023-01-09T08:07:13.925Z,87114.00
2023-01-09T08:08:13.910Z,87114.00
2023-01-09T08:09:13.882Z,87116.00
2023-01-09T08:10:13.869Z,87116.00
2023-01-09T08:11:13.846Z,87116.00
2023-01-09T08:12:13.812Z,87118.00
2023-01-09T08:13:13.777Z,87124.00
2023-01-09T08:14:13.745Z,87122.00
2023-01-09T08:15:13.721Z,87120.00
2023-01-09T08:16:13.739Z,87116.00
2023-01-09T08:17:13.643Z,87120.00
2023-01-09T08:18:13.615Z,87114.00
2023-01-09T08:19:13.593Z,87116.00
2023-01-09T08:20:13.540Z,87116.00
2023-01-09T08:21:13.501Z,87114.00
2023-01-09T08:22:13.470Z,87116.00
2023-01-09T08:23:13.537Z,87118.00
2023-01-09T08:24:13.446Z,87122.00
2023-01-09T08:25:13.366Z,87116.00
2023-01-09T08:26:13.334Z,87118.00
2023-01-09T08:27:13.296Z,87114.00
2023-01-09T08:28:13.262Z,87124.00
2023-01-09T08:29:13.238Z,87122.00
2023-01-09T08:30:13.208Z,87122.00
2023-01-09T08:31:13.205Z,87120.00
2023-01-09T08:32:13.145Z,87124.00
2023-01-09T08:33:13.108Z,87122.00
2023-01-09T08:34:13.083Z,87132.00
2023-01-09T08:35:13.051Z,87132.00
2023-01-09T08:36:13.052Z,87134.00
2023-01-09T08:37:13.014Z,87137.00
2023-01-09T08:38:12.972Z,87139.00
2023-01-09T08:39:12.937Z,87139.00
2023-01-09T08:40:12.912Z,87141.00
2023-01-09T08:41:12.866Z,87143.00
2023-01-09T08:42:12.837Z,87143.00
2023-01-09T08:43:12.912Z,87143.00
2023-01-09T08:44:12.812Z,87141.00
2023-01-09T08:45:12.737Z,87143.00
2023-01-09T08:46:12.703Z,87143.00
2023-01-09T08:47:12.648Z,87143.00
2023-01-09T08:48:12.623Z,87141.00
2023-01-09T08:49:12.583Z,87143.00
2023-01-09T08:50:12.544Z,87145.00
2023-01-09T08:51:12.491Z,87147.00
2023-01-09T08:52:12.452Z,87149.00
2023-01-09T08:53:12.423Z,87147.00
2023-01-09T08:54:12.385Z,87145.00
2023-01-09T08:55:12.365Z,87147.00
2023-01-09T08:56:12.314Z,87149.00
2023-01-09T08:57:12.282Z,87149.00
2023-01-09T08:58:12.253Z,87151.00
2023-01-09T08:59:12.204Z,87143.00
2023-01-09T09:00:12.191Z,87145.00
2023-01-09T09:01:12.159Z,87139.00
2023-01-09T09:02:12.081Z,87137.00
2023-01-09T09:03:12.023Z,87145.00
2023-01-09T09:04:11.995Z,87143.00
2023-01-09T09:05:11.953Z,87143.00
2023-01-09T09:06:11.920Z,87147.00
2023-01-09T09:07:11.863Z,87149.00
2023-01-09T09:08:11.830Z,87155.00
2023-01-09T09:09:11.790Z,87157.00
2023-01-09T09:10:11.742Z,87157.00
2023-01-09T09:11:11.704Z,87155.00
2023-01-09T09:12:11.661Z,87157.00
2023-01-09T09:13:11.624Z,87161.00
2023-01-09T09:14:11.573Z,87161.00
2023-01-09T09:15:11.528Z,87165.00
2023-01-09T09:16:11.512Z,87167.00
2023-01-09T09:17:11.431Z,87169.00
2023-01-09T09:18:11.397Z,87165.00
2023-01-09T09:19:11.342Z,87165.00
2023-01-09T09:20:11.301Z,87167.00
2023-01-09T09:21:11.580Z,87169.00
2023-01-09T09:22:11.211Z,87171.00
2023-01-09T09:23:11.171Z,87173.00
2023-01-09T09:24:11.135Z,87175.00
2023-01-09T09:25:11.078Z,87175.00
2023-01-09T09:26:11.036Z,87173.00
2023-01-09T09:27:11.019Z,87171.00
2023-01-09T09:28:10.959Z,87171.00
2023-01-09T09:29:10.911Z,87173.00
2023-01-09T09:30:10.882Z,87169.00
2023-01-09T09:31:10.901Z,87169.00
2023-01-09T09:32:10.801Z,87167.00
2023-01-09T09:33:10.767Z,87167.00
2023-01-09T09:34:10.761Z,87171.00
2023-01-09T09:35:10.691Z,87171.00
2023-01-09T09:36:10.669Z,87177.00
2023-01-09T09:37:10.658Z,87179.00
2023-01-09T09:38:10.587Z,87190.00
2023-01-09T09:39:10.548Z,87188.00
2023-01-09T09:40:18.344Z,87181.00
2023-01-09T09:41:11.586Z,87177.00
2023-01-09T09:42:10.453Z,87175.00
2023-01-09T09:43:10.481Z,87173.00
2023-01-09T09:44:10.396Z,87167.00
2023-01-09T09:45:10.344Z,87165.00
2023-01-09T09:46:10.332Z,87165.00
2023-01-09T09:47:10.289Z,87163.00
2023-01-09T09:48:10.252Z,87163.00
2023-01-09T09:49:10.218Z,87165.00
2023-01-09T09:50:10.195Z,87165.00
2023-01-09T09:51:10.163Z,87167.00
2023-01-09T09:52:10.149Z,87171.00
2023-01-09T09:53:10.114Z,87169.00
2023-01-09T09:54:10.884Z,87171.00
2023-01-09T09:55:10.059Z,87175.00
2023-01-09T09:56:10.031Z,87175.00
2023-01-09T09:57:10.027Z,87175.00
2023-01-09T09:58:10.044Z,87177.00
2023-01-09T09:59:09.984Z,87175.00
2023-01-09T10:00:09.971Z,87177.00
2023-01-09T10:01:09.957Z,87177.00
2023-01-09T10:02:10.063Z,87177.00
2023-01-09T10:03:09.956Z,87177.00
2023-01-09T10:04:09.899Z,87177.00
2023-01-09T10:05:09.880Z,87177.00
2023-01-09T10:06:09.859Z,87171.00
2023-01-09T10:07:09.857Z,87171.00
2023-01-09T10:08:15.729Z,87167.00
2023-01-09T10:09:10.829Z,87163.00
2023-01-09T10:10:09.810Z,87165.00
2023-01-09T10:11:09.775Z,87157.00
2023-01-09T10:12:09.787Z,87155.00
2023-01-09T10:13:09.744Z,87151.00
2023-01-09T10:14:22.898Z,87147.00
2023-01-09T10:15:10.705Z,87147.00
2023-01-09T10:16:09.747Z,87147.00
2023-01-09T10:17:09.678Z,87145.00
2023-01-09T10:18:09.654Z,87147.00
2023-01-09T10:19:09.643Z,87143.00
2023-01-09T10:20:09.656Z,87143.00
2023-01-09T10:21:09.610Z,87139.00
2023-01-09T10:22:09.561Z,87141.00
2023-01-09T10:23:09.613Z,87139.00
2023-01-09T10:24:09.528Z,87139.00
2023-01-09T10:25:09.504Z,87135.00
2023-01-09T10:26:09.476Z,87137.00
2023-01-09T10:27:09.452Z,87139.00
2023-01-09T10:28:09.425Z,87139.00
2023-01-09T10:29:09.401Z,87141.00
2023-01-09T10:30:09.385Z,87141.00
2023-01-09T10:31:09.461Z,87145.00
2023-01-09T10:32:09.333Z,87143.00
2023-01-09T10:33:09.294Z,87143.00
2023-01-09T10:34:09.271Z,87141.00
2023-01-09T10:35:09.252Z,87143.00
2023-01-09T10:36:09.231Z,87141.00
2023-01-09T10:37:09.232Z,87143.00
2023-01-09T10:38:09.189Z,87139.00
2023-01-09T10:39:09.170Z,87139.00
2023-01-09T10:40:09.147Z,87139.00
2023-01-09T10:41:09.142Z,87139.00
2023-01-09T10:42:09.129Z,87143.00
2023-01-09T10:43:09.118Z,87141.00
2023-01-09T10:44:09.079Z,87139.00
2023-01-09T10:45:09.056Z,87137.00
2023-01-09T10:46:09.068Z,87137.00
2023-01-09T10:47:09.130Z,87135.00
2023-01-09T10:48:08.998Z,87137.00
2023-01-09T10:49:08.997Z,87139.00
2023-01-09T10:50:08.944Z,87139.00
2023-01-09T10:51:08.936Z,87141.00
2023-01-09T10:52:08.901Z,87145.00
2023-01-09T10:53:08.854Z,87145.00
2023-01-09T10:54:08.841Z,87153.00
2023-01-09T10:55:08.806Z,87153.00
2023-01-09T10:56:08.778Z,87153.00
2023-01-09T10:57:08.759Z,87151.00
2023-01-09T10:58:08.747Z,87151.00
2023-01-09T10:59:08.694Z,87157.00
2023-01-09T11:00:08.738Z,87157.00
2023-01-09T11:01:08.640Z,87155.00
2023-01-09T11:02:08.645Z,87149.00
2023-01-09T11:03:08.565Z,87147.00
2023-01-09T11:04:08.524Z,87145.00
2023-01-09T11:05:08.502Z,87149.00
2023-01-09T11:06:08.459Z,87143.00
2023-01-09T11:07:08.434Z,87147.00
2023-01-09T11:08:08.437Z,87143.00
2023-01-09T11:09:08.372Z,87145.00
2023-01-09T11:10:08.351Z,87147.00
2023-01-09T11:11:08.326Z,87149.00
2023-01-09T11:12:08.290Z,87151.00
2023-01-09T11:13:08.256Z,87147.00
2023-01-09T11:14:08.247Z,87145.00
2023-01-09T11:15:08.172Z,87145.00
2023-01-09T11:16:08.183Z,87149.00
2023-01-09T11:17:08.099Z,87149.00
2023-01-09T11:18:08.062Z,87147.00
2023-01-09T11:19:08.020Z,87145.00
2023-01-09T11:20:07.978Z,87143.00
2023-01-09T11:21:07.939Z,87141.00
2023-01-09T11:22:07.920Z,87135.00
2023-01-09T11:23:07.862Z,87134.00
2023-01-09T11:24:07.809Z,87135.00
2023-01-09T11:25:07.768Z,87135.00
2023-01-09T11:26:09.206Z,87137.00
2023-01-09T11:27:07.743Z,87139.00
2023-01-09T11:28:07.800Z,87137.00
2023-01-09T11:29:07.669Z,87143.00
2023-01-09T11:30:07.614Z,87139.00
2023-01-09T11:31:07.637Z,87139.00
2023-01-09T11:32:07.522Z,87137.00
2023-01-09T11:33:07.480Z,87135.00
2023-01-09T11:34:07.433Z,87137.00
2023-01-09T11:35:07.410Z,87143.00
2023-01-09T11:36:07.353Z,87137.00
2023-01-09T11:37:07.377Z,87139.00
2023-01-09T11:38:07.256Z,87139.00
2023-01-09T11:39:07.225Z,87141.00
2023-01-09T11:40:07.191Z,87139.00
2023-01-09T11:41:07.151Z,87141.00
2023-01-09T11:42:07.130Z,87143.00
2023-01-09T11:43:07.100Z,87141.00
2023-01-09T11:44:07.046Z,87145.00
2023-01-09T11:45:07.000Z,87139.00
2023-01-09T11:46:06.958Z,87135.00
2023-01-09T11:47:06.927Z,87134.00
2023-01-09T11:48:06.896Z,87132.00
2023-01-09T11:49:06.846Z,87135.00
2023-01-09T11:50:06.811Z,87134.00
2023-01-09T11:51:06.795Z,87137.00
2023-01-09T11:52:06.756Z,87137.00
2023-01-09T11:53:06.709Z,87139.00
2023-01-09T11:54:06.662Z,87147.00
2023-01-09T11:55:06.631Z,87145.00
2023-01-09T11:56:06.604Z,87149.00
2023-01-09T11:57:06.569Z,87149.00